Time;durP1;ratioP1;P1;durP2;ratioP2;P2;SDS_P1;SDS_P2;PMS_P1;PMS_P2;Temp;Humidity;BMP_temperature;BMP_pressure;BME280_temperature;BME280_humidity;BME280_pressure;Samples;Min_cycle;Max_cycle;Signal;HPM_P1;HPM_P2
2021/06/02 00:01:56;;;;;;;2.27;1.60;;;13.20;99.90;;;;;;5012114;28;20229;-84
2021/06/02 00:04:25;;;;;;;2.13;1.40;;;13.10;99.90;;;;;;4998477;28;20302;-83
2021/06/02 00:06:53;;;;;;;2.03;1.70;;;13.10;99.90;;;;;;4999069;28;20235;-84
2021/06/02 00:09:19;;;;;;;2.30;1.97;;;13.10;99.90;;;;;;5025016;28;20234;-83
2021/06/02 00:11:45;;;;;;;2.13;1.80;;;13.10;99.90;;;;;;5027280;28;20218;-84
2021/06/02 00:14:11;;;;;;;4.13;1.70;;;13.10;99.90;;;;;;4989344;28;20207;-83
2021/06/02 00:16:38;;;;;;;2.90;2.00;;;13.10;99.90;;;;;;5005354;28;20223;-83
2021/06/02 00:19:05;;;;;;;3.63;2.47;;;13.10;99.90;;;;;;4997753;28;20215;-84
2021/06/02 00:21:33;;;;;;;3.40;2.57;;;13.10;99.90;;;;;;4989366;28;20310;-84
2021/06/02 00:23:58;;;;;;;2.40;1.93;;;13.10;99.90;;;;;;4987164;28;20657;-83
2021/06/02 00:26:25;;;;;;;3.23;2.00;;;13.00;99.90;;;;;;4991436;28;20218;-84
2021/06/02 00:28:51;;;;;;;2.70;2.50;;;13.00;99.90;;;;;;5012758;28;20230;-84
2021/06/02 00:31:18;;;;;;;3.37;2.47;;;13.00;99.90;;;;;;5005427;28;20282;-83
2021/06/02 00:33:44;;;;;;;3.33;1.90;;;13.00;99.90;;;;;;5006847;28;20214;-83
2021/06/02 00:36:13;;;;;;;3.10;2.10;;;13.00;99.90;;;;;;5001251;28;20231;-83
2021/06/02 00:38:40;;;;;;;2.13;1.90;;;13.10;99.90;;;;;;5027039;28;20182;-84
2021/06/02 00:41:07;;;;;;;3.80;2.40;;;13.10;99.90;;;;;;4988776;28;20677;-83
2021/06/02 00:43:33;;;;;;;2.50;1.70;;;13.10;99.90;;;;;;5003459;28;20230;-83
2021/06/02 00:45:59;;;;;;;2.77;1.80;;;13.10;99.90;;;;;;5026827;28;20309;-84
2021/06/02 00:48:25;;;;;;;3.43;2.00;;;13.10;99.90;;;;;;5015379;28;20316;-84
2021/06/02 00:50:51;;;;;;;3.57;2.40;;;13.20;99.90;;;;;;4997856;28;20275;-84
2021/06/02 00:53:18;;;;;;;1.77;1.67;;;13.30;99.90;;;;;;5022231;28;20199;-83
2021/06/02 00:55:44;;;;;;;2.57;2.10;;;13.30;99.90;;;;;;4996875;28;20250;-83
2021/06/02 00:58:22;;;;;;;4.57;1.80;;;13.30;99.90;;;;;;5002548;28;20212;-83
2021/06/02 01:00:48;;;;;;;2.27;1.67;;;13.30;99.90;;;;;;4987570;28;20227;-83
2021/06/02 01:03:21;;;;;;;2.00;1.73;;;13.40;99.90;;;;;;5005268;28;20223;-83
2021/06/02 01:05:48;;;;;;;3.90;2.10;;;13.40;99.90;;;;;;5008207;28;20192;-82
2021/06/02 01:08:15;;;;;;;7.27;2.30;;;13.40;99.90;;;;;;4994292;28;20187;-82
2021/06/02 01:10:44;;;;;;;3.10;2.10;;;13.40;99.90;;;;;;4993591;28;20223;-83
2021/06/02 01:13:13;;;;;;;4.07;2.10;;;13.30;99.90;;;;;;5017427;28;20299;-82
2021/06/02 01:15:39;;;;;;;3.83;2.87;;;13.20;99.90;;;;;;4994374;28;20228;-83
2021/06/02 01:18:07;;;;;;;3.10;2.80;;;13.20;99.90;;;;;;4997002;28;21303;-84
2021/06/02 01:20:37;;;;;;;3.93;2.70;;;13.20;99.90;;;;;;5006256;28;20220;-83
2021/06/02 01:23:05;;;;;;;3.50;2.67;;;13.20;99.90;;;;;;4994595;28;20223;-83
2021/06/02 01:25:31;;;;;;;3.13;2.17;;;13.10;99.90;;;;;;5006828;28;20273;-83
2021/06/02 01:27:56;;;;;;;4.50;2.73;;;13.00;99.90;;;;;;5011601;28;20215;-82
2021/06/02 01:30:23;;;;;;;4.30;2.60;;;12.90;99.90;;;;;;5006470;28;20239;-82
2021/06/02 01:33:26;;;;;;;4.43;2.60;;;12.80;99.90;;;;;;5007726;28;20199;-82
2021/06/02 01:36:09;;;;;;;3.43;2.43;;;12.60;99.90;;;;;;5009145;28;20188;-84
2021/06/02 01:39:01;;;;;;;6.77;2.80;;;12.60;99.90;;;;;;5010274;28;20191;-81
2021/06/02 01:42:04;;;;;;;4.17;2.80;;;12.60;99.90;;;;;;4992651;28;20212;-82
2021/06/02 01:44:36;;;;;;;4.50;3.13;;;12.60;99.90;;;;;;5029912;28;20242;-83
2021/06/02 01:47:40;;;;;;;3.90;3.00;;;12.60;99.90;;;;;;4992722;28;20310;-83
2021/06/02 01:50:31;;;;;;;4.43;2.67;;;12.50;99.90;;;;;;5015076;28;20223;-81
2021/06/02 01:53:34;;;;;;;3.53;3.13;;;12.50;99.90;;;;;;5027275;28;20242;-83
2021/06/02 01:56:21;;;;;;;4.07;3.63;;;12.50;99.90;;;;;;4994081;28;20220;-84
2021/06/02 01:58:46;;;;;;;3.47;2.60;;;12.50;99.90;;;;;;5007577;28;20218;-83
2021/06/02 02:01:50;;;;;;;6.47;4.23;;;12.50;99.90;;;;;;5006689;28;20976;-85
2021/06/02 02:04:29;;;;;;;6.53;3.83;;;12.50;99.90;;;;;;5019156;28;20254;-82
2021/06/02 02:07:25;;;;;;;5.67;3.13;;;12.60;99.90;;;;;;5014039;28;20295;-82
2021/06/02 02:09:59;;;;;;;7.00;3.83;;;12.70;99.90;;;;;;5011214;28;20333;-82
2021/06/02 02:12:37;;;;;;;6.50;4.43;;;12.60;99.90;;;;;;5028711;28;20214;-83
2021/06/02 02:15:25;;;;;;;5.97;3.90;;;12.60;99.90;;;;;;5012167;28;20211;-83
2021/06/02 02:18:13;;;;;;;8.43;3.50;;;12.60;99.90;;;;;;5014030;28;20190;-83
2021/06/02 02:20:46;;;;;;;4.70;3.33;;;12.60;99.90;;;;;;5013514;28;20562;-83
2021/06/02 02:23:41;;;;;;;6.00;4.23;;;12.60;99.90;;;;;;5007798;28;20599;-83
2021/06/02 02:26:25;;;;;;;4.73;3.13;;;12.60;99.90;;;;;;5010573;28;20306;-83
2021/06/02 02:28:53;;;;;;;6.97;4.10;;;12.60;99.90;;;;;;5020584;28;20318;-83
2021/06/02 02:31:43;;;;;;;5.50;3.93;;;12.60;99.90;;;;;;5002854;28;20302;-83
2021/06/02 02:34:18;;;;;;;10.27;3.60;;;12.60;99.90;;;;;;5027939;28;20230;-83
2021/06/02 02:36:50;;;;;;;4.97;3.50;;;12.60;99.90;;;;;;5018391;28;20240;-83
2021/06/02 02:39:52;;;;;;;8.73;4.13;;;12.60;99.90;;;;;;5005650;28;20278;-83
2021/06/02 02:42:44;;;;;;;5.37;2.90;;;12.60;99.90;;;;;;4997426;28;20217;-82
2021/06/02 02:45:32;;;;;;;5.07;3.53;;;12.70;99.90;;;;;;5011605;28;20219;-83
2021/06/02 02:48:24;;;;;;;7.37;4.47;;;12.60;99.90;;;;;;5002089;28;20199;-83
2021/06/02 02:51:11;;;;;;;7.80;3.73;;;12.60;99.90;;;;;;5027746;28;20318;-84
2021/06/02 02:54:03;;;;;;;5.60;4.40;;;12.60;99.90;;;;;;5028063;28;20183;-84
2021/06/02 02:56:49;;;;;;;10.10;4.53;;;12.60;99.90;;;;;;4999118;28;20286;-82
2021/06/02 02:59:31;;;;;;;5.40;3.43;;;12.60;99.90;;;;;;4991282;28;20273;-82
2021/06/02 03:02:08;;;;;;;6.57;4.23;;;12.60;99.90;;;;;;5012032;28;20401;-83
2021/06/02 03:04:42;;;;;;;7.97;4.87;;;12.60;99.90;;;;;;5006769;28;20337;-83
2021/06/02 03:07:11;;;;;;;7.33;5.00;;;12.60;99.90;;;;;;5007452;28;20435;-83
2021/06/02 03:09:48;;;;;;;12.67;5.33;;;12.60;99.90;;;;;;5000052;28;20237;-82
2021/06/02 03:13:02;;;;;;;6.33;4.90;;;12.60;99.90;;;;;;4986841;28;20250;-84
2021/06/02 03:15:36;;;;;;;5.00;3.53;;;12.50;99.90;;;;;;4992620;28;20223;-84
2021/06/02 03:18:24;;;;;;;8.90;4.13;;;12.50;99.90;;;;;;5024792;28;20659;-83
2021/06/02 03:21:30;;;;;;;6.90;4.57;;;12.50;99.90;;;;;;4992426;28;20515;-82
2021/06/02 03:24:18;;;;;;;7.80;4.80;;;12.50;99.90;;;;;;5002828;28;20195;-82
2021/06/02 03:26:58;;;;;;;9.17;4.50;;;12.50;99.90;;;;;;5007218;28;20198;-84
2021/06/02 03:29:28;;;;;;;9.03;5.17;;;12.50;99.90;;;;;;5009735;28;20659;-83
2021/06/02 03:32:10;;;;;;;6.53;4.30;;;12.50;99.90;;;;;;5025016;28;20639;-83
2021/06/02 03:35:01;;;;;;;9.20;4.97;;;12.60;99.90;;;;;;4995920;28;20231;-85
2021/06/02 03:37:53;;;;;;;4.90;3.93;;;12.50;99.90;;;;;;5017331;28;20634;-84
2021/06/02 03:40:27;;;;;;;8.20;4.37;;;12.60;99.90;;;;;;5002241;28;20223;-84
2021/06/02 03:43:29;;;;;;;6.67;3.47;;;12.60;99.90;;;;;;5000050;28;20284;-83
2021/06/02 03:45:55;;;;;;;11.10;5.07;;;12.70;99.90;;;;;;5002264;28;20222;-85
2021/06/02 03:48:41;;;;;;;8.90;5.20;;;12.70;99.90;;;;;;4992233;28;20238;-85
2021/06/02 03:51:16;;;;;;;7.87;4.43;;;12.70;99.90;;;;;;4994329;28;20223;-83
2021/06/02 03:53:45;;;;;;;5.57;3.67;;;12.80;99.90;;;;;;5019643;28;20194;-83
2021/06/02 03:56:48;;;;;;;11.10;5.87;;;12.90;99.90;;;;;;4992172;28;20292;-84
2021/06/02 03:59:29;;;;;;;8.43;4.10;;;12.90;99.90;;;;;;4993148;28;20216;-85
2021/06/02 04:02:03;;;;;;;8.50;4.93;;;13.00;99.90;;;;;;5015524;28;20218;-84
2021/06/02 04:04:40;;;;;;;7.90;4.20;;;13.10;99.90;;;;;;5025750;28;20313;-85
2021/06/02 04:07:34;;;;;;;11.67;6.23;;;13.20;99.90;;;;;;5021844;28;20297;-84
2021/06/02 04:10:07;;;;;;;8.40;5.03;;;13.20;99.90;;;;;;5009269;28;20302;-85
2021/06/02 04:12:47;;;;;;;8.87;5.93;;;13.30;99.90;;;;;;5024392;28;20215;-84
2021/06/02 04:15:15;;;;;;;10.57;5.90;;;13.40;99.90;;;;;;5028487;28;20221;-83
2021/06/02 04:17:48;;;;;;;8.67;5.27;;;13.50;99.90;;;;;;5013044;28;20195;-82
2021/06/02 04:20:16;;;;;;;14.10;5.70;;;13.60;99.90;;;;;;4990027;28;20216;-82
2021/06/02 04:22:44;;;;;;;10.40;4.47;;;13.70;99.90;;;;;;5021041;28;20658;-83
2021/06/02 04:25:13;;;;;;;11.60;5.97;;;13.80;99.90;;;;;;5025262;28;20215;-86
2021/06/02 04:27:40;;;;;;;13.13;5.33;;;13.90;99.90;;;;;;5009730;28;20882;-87
2021/06/02 04:30:07;;;;;;;10.33;5.03;;;14.10;99.90;;;;;;4990880;28;20258;-84
2021/06/02 04:32:40;;;;;;;12.23;6.13;;;14.10;99.90;;;;;;5018567;28;20205;-84
2021/06/02 04:35:08;;;;;;;9.50;5.63;;;14.20;99.90;;;;;;5005686;28;20241;-85
2021/06/02 04:37:35;;;;;;;9.73;5.60;;;14.40;99.90;;;;;;5024668;28;20281;-83
2021/06/02 04:40:04;;;;;;;9.43;5.17;;;14.50;99.90;;;;;;5021877;28;20222;-84
2021/06/02 04:42:33;;;;;;;10.77;5.97;;;14.60;99.90;;;;;;5029890;28;20279;-84
2021/06/02 04:44:59;;;;;;;15.57;6.03;;;14.70;99.90;;;;;;5020322;28;20191;-84
2021/06/02 04:47:25;;;;;;;12.10;5.30;;;14.80;99.90;;;;;;4995050;28;20211;-86
2021/06/02 04:50:23;;;;;;;12.03;6.07;;;14.90;99.90;;;;;;4996574;28;20293;-85
2021/06/02 04:53:08;;;;;;;10.67;5.13;;;15.00;99.90;;;;;;5010823;28;20223;-84
2021/06/02 04:56:04;;;;;;;12.97;6.63;;;15.10;99.90;;;;;;5008277;28;20221;-85
2021/06/02 04:58:56;;;;;;;8.83;6.07;;;15.30;99.90;;;;;;5025951;28;20218;-86
2021/06/02 05:01:41;;;;;;;10.40;5.77;;;15.40;99.90;;;;;;5017045;28;20251;-84
2021/06/02 05:04:56;;;;;;;12.23;6.37;;;15.50;99.90;;;;;;5016206;28;20238;-85
2021/06/02 05:07:41;;;;;;;10.13;5.17;;;15.70;99.90;;;;;;5027924;28;20226;-85
2021/06/02 05:10:44;;;;;;;12.90;5.23;;;15.80;99.90;;;;;;5031244;28;20616;-86
2021/06/02 05:13:41;;;;;;;12.63;6.00;;;16.00;99.90;;;;;;5015257;28;20222;-85
2021/06/02 05:16:21;;;;;;;9.33;5.53;;;16.30;99.90;;;;;;5029700;28;20222;-86
2021/06/02 05:18:52;;;;;;;10.13;5.83;;;16.90;99.90;;;;;;5014680;28;20317;-85
2021/06/02 05:22:05;;;;;;;8.40;5.10;;;17.20;99.90;;;;;;5028516;28;20222;-85
2021/06/02 05:24:36;;;;;;;10.67;5.17;;;19.10;99.90;;;;;;5013941;28;20218;-85
2021/06/02 05:27:23;;;;;;;5.40;4.43;;;21.00;99.90;;;;;;5015378;28;20206;-87
2021/06/02 05:30:02;;;;;;;7.87;4.60;;;21.30;99.90;;;;;;5014638;28;20187;-86
2021/06/02 05:33:05;;;;;;;8.50;5.00;;;22.40;99.90;;;;;;5022644;28;20223;-88
2021/06/02 05:36:03;;;;;;;6.63;4.50;;;22.80;99.90;;;;;;5011089;28;20218;-88
2021/06/02 05:38:54;;;;;;;11.47;4.07;;;24.10;99.90;;;;;;5010324;28;20230;-87
2021/06/02 05:41:48;;;;;;;6.20;3.70;;;24.40;99.90;;;;;;5023219;28;20284;-87
2021/06/02 05:44:51;;;;;;;8.00;4.40;;;24.50;99.90;;;;;;5025928;28;20226;-87
2021/06/02 05:47:55;;;;;;;5.07;3.90;;;24.30;99.90;;;;;;5026409;28;20259;-88
2021/06/02 05:50:39;;;;;;;6.70;4.70;;;22.30;99.90;;;;;;5008561;28;20242;-89
2021/06/02 05:53:38;;;;;;;8.07;3.77;;;22.20;99.90;;;;;;5015593;28;20265;-89
2021/06/02 05:56:04;;;;;;;4.93;2.97;;;21.60;99.90;;;;;;5025369;28;20226;-88
2021/06/02 05:58:46;;;;;;;5.10;3.67;;;21.70;99.90;;;;;;5015133;28;20225;-87
2021/06/02 06:01:37;;;;;;;4.60;3.53;;;22.00;99.90;;;;;;4991597;28;20223;-87
2021/06/02 06:04:16;;;;;;;7.00;3.30;;;21.80;99.90;;;;;;5017229;28;20650;-87
2021/06/02 06:06:55;;;;;;;5.10;3.13;;;22.70;99.90;;;;;;5003817;28;20235;-88
2021/06/02 06:09:43;;;;;;;6.60;3.95;;;22.80;99.90;;;;;;5009460;28;20700;-85
2021/06/02 06:12:33;;;;;;;4.32;3.08;;;22.60;99.90;;;;;;4992961;28;20235;-88
2021/06/02 06:15:36;;;;;;;4.35;3.03;;;22.50;99.90;;;;;;5011366;28;20258;-85
2021/06/02 06:18:20;;;;;;;4.07;3.40;;;22.30;99.90;;;;;;5013808;28;20214;-87
2021/06/02 06:20:58;;;;;;;5.57;3.20;;;22.40;99.90;;;;;;4999885;28;20234;-86
2021/06/02 06:23:41;;;;;;;7.43;2.63;;;22.40;99.90;;;;;;4994630;28;20179;-85
2021/06/02 06:26:16;;;;;;;4.25;2.97;;;21.80;99.90;;;;;;4992078;28;20235;-86
2021/06/02 06:29:13;;;;;;;5.10;3.10;;;21.60;99.90;;;;;;5026222;28;20280;-90
2021/06/02 06:31:42;;;;;;;3.65;3.10;;;21.20;99.90;;;;;;5013744;28;20246;-89
2021/06/02 06:34:13;;;;;;;6.70;3.10;;;21.30;99.90;;;;;;4998059;28;20384;-90
2021/06/02 06:36:41;;;;;;;4.93;3.00;;;21.20;99.90;;;;;;5016877;28;20276;-92
2021/06/02 06:39:15;;;;;;;4.07;2.70;;;21.00;99.90;;;;;;5026403;28;21463;-87
2021/06/02 06:41:42;;;;;;;4.13;3.10;;;20.90;99.90;;;;;;4997140;28;20796;-90
2021/06/02 06:44:11;;;;;;;4.63;3.17;;;20.70;99.90;;;;;;5025931;28;20219;-88
2021/06/02 06:46:38;;;;;;;4.83;3.67;;;21.50;99.90;;;;;;5009579;28;20311;-88
2021/06/02 06:49:06;;;;;;;5.07;3.40;;;21.20;99.90;;;;;;5017183;28;20769;-89
2021/06/02 06:51:34;;;;;;;4.07;3.10;;;22.10;99.90;;;;;;5008915;28;20309;-87
2021/06/02 06:54:01;;;;;;;4.57;3.03;;;22.00;99.90;;;;;;5000739;28;20210;-87
2021/06/02 06:56:29;;;;;;;4.68;3.53;;;21.30;99.90;;;;;;5032468;28;20194;-86
2021/06/02 06:58:57;;;;;;;5.38;3.50;;;21.40;99.90;;;;;;5012332;28;20355;-86
2021/06/02 07:01:23;;;;;;;5.20;3.25;;;20.60;99.90;;;;;;5004093;28;20215;-87
2021/06/02 07:03:50;;;;;;;5.17;3.10;;;20.00;99.90;;;;;;5011556;28;20222;-85
2021/06/02 07:06:17;;;;;;;4.27;2.87;;;20.50;99.90;;;;;;5009394;28;20239;-86
2021/06/02 07:08:46;;;;;;;3.70;3.10;;;20.50;99.90;;;;;;4992781;28;20278;-86
2021/06/02 07:11:17;;;;;;;4.53;3.33;;;20.20;99.90;;;;;;4982246;28;20251;-86
2021/06/02 07:13:45;;;;;;;5.53;3.37;;;20.60;99.90;;;;;;4983209;28;20322;-85
2021/06/02 07:16:12;;;;;;;3.93;3.23;;;20.80;99.90;;;;;;5017539;28;20541;-84
2021/06/02 07:18:40;;;;;;;4.03;2.77;;;20.60;99.90;;;;;;5009501;28;20216;-86
2021/06/02 07:21:07;;;;;;;5.60;3.43;;;20.40;99.90;;;;;;5008409;28;20310;-85
2021/06/02 07:23:33;;;;;;;6.67;3.80;;;20.20;99.90;;;;;;5006328;28;20203;-86
2021/06/02 07:25:59;;;;;;;5.83;3.17;;;20.40;99.90;;;;;;5014017;28;20762;-84
2021/06/02 07:28:37;;;;;;;5.63;3.00;;;20.70;99.90;;;;;;4991330;28;21306;-85
2021/06/02 07:31:04;;;;;;;6.33;4.10;;;21.20;99.90;;;;;;5003802;28;20239;-86
2021/06/02 07:33:30;;;;;;;3.80;3.00;;;22.30;99.90;;;;;;5005913;28;20614;-86
2021/06/02 07:35:56;;;;;;;3.40;2.97;;;22.30;99.90;;;;;;5025725;28;20223;-86
2021/06/02 07:38:22;;;;;;;4.82;2.30;;;22.30;99.90;;;;;;5013783;28;20649;-87
2021/06/02 07:40:48;;;;;;;3.78;2.60;;;22.80;99.90;;;;;;5013257;28;20594;-86
2021/06/02 07:43:14;;;;;;;3.05;2.47;;;22.80;99.90;;;;;;5025641;28;20706;-87
2021/06/02 07:45:40;;;;;;;3.92;2.83;;;22.80;99.90;;;;;;5014569;28;20714;-86
2021/06/02 07:48:06;;;;;;;4.30;2.70;;;22.60;99.90;;;;;;5010134;28;20743;-87
2021/06/02 07:50:32;;;;;;;5.60;2.97;;;22.40;99.90;;;;;;5028247;28;20784;-88
2021/06/02 07:52:58;;;;;;;4.28;3.10;;;22.60;99.90;;;;;;5008935;28;20226;-87
2021/06/02 07:55:23;;;;;;;4.22;2.97;;;22.30;99.90;;;;;;4991054;28;20250;-88
2021/06/02 07:57:49;;;;;;;5.38;3.22;;;22.70;99.90;;;;;;4996692;28;20306;-88
2021/06/02 08:00:15;;;;;;;4.35;2.70;;;22.90;99.90;;;;;;5008695;28;20211;-86
2021/06/02 08:02:42;;;;;;;4.07;2.80;;;23.30;99.90;;;;;;4999921;28;20191;-88
2021/06/02 08:05:09;;;;;;;5.30;2.78;;;23.40;99.90;;;;;;4983287;28;20298;-88
2021/06/02 08:07:35;;;;;;;3.15;2.70;;;23.10;99.90;;;;;;5022498;28;20230;-87
2021/06/02 08:10:01;;;;;;;4.25;3.15;;;23.00;99.90;;;;;;5019565;28;20211;-88
2021/06/02 08:12:26;;;;;;;5.05;2.92;;;23.00;99.90;;;;;;4997026;28;20585;-87
2021/06/02 08:14:52;;;;;;;5.13;3.38;;;23.30;99.90;;;;;;5019657;28;20198;-86
2021/06/02 08:17:18;;;;;;;3.85;2.60;;;23.30;99.90;;;;;;5020653;28;20251;-87
2021/06/02 08:19:44;;;;;;;5.20;3.55;;;23.00;99.90;;;;;;5019133;28;20258;-87
2021/06/02 08:22:10;;;;;;;6.25;2.88;;;22.50;99.90;;;;;;5021634;28;20658;-84
2021/06/02 08:24:39;;;;;;;4.95;3.15;;;22.70;99.90;;;;;;5003641;28;20616;-84
2021/06/02 08:27:11;;;;;;;4.53;2.88;;;22.60;99.90;;;;;;5004399;28;20223;-85
2021/06/02 08:29:36;;;;;;;6.03;3.38;;;22.20;99.90;;;;;;5011888;28;20190;-85
2021/06/02 08:32:02;;;;;;;4.68;3.03;;;22.50;99.90;;;;;;5023593;28;20616;-85
2021/06/02 08:34:28;;;;;;;6.72;3.53;;;23.10;99.90;;;;;;5013131;28;20229;-85
2021/06/02 08:36:54;;;;;;;9.32;3.78;;;23.10;99.90;;;;;;4999374;28;20743;-85
2021/06/02 08:39:20;;;;;;;5.18;3.08;;;22.80;99.90;;;;;;4980662;28;20732;-85
2021/06/02 08:41:49;;;;;;;15.25;4.50;;;23.10;99.90;;;;;;4985948;28;20187;-83
2021/06/02 08:44:16;;;;;;;5.80;3.47;;;23.10;99.90;;;;;;5004526;28;20191;-83
2021/06/02 08:46:42;;;;;;;4.25;3.58;;;23.00;99.90;;;;;;5002787;28;20227;-85
2021/06/02 08:49:07;;;;;;;8.10;3.80;;;22.50;99.90;;;;;;5027018;28;20218;-83
2021/06/02 08:51:34;;;;;;;5.30;3.55;;;22.30;99.90;;;;;;5020687;28;20227;-84
2021/06/02 08:54:00;;;;;;;7.68;3.97;;;22.00;99.90;;;;;;4999657;28;20180;-84
2021/06/02 08:56:32;;;;;;;8.52;4.13;;;21.20;99.90;;;;;;5024307;28;20199;-85
2021/06/02 08:58:58;;;;;;;5.05;3.90;;;21.10;99.90;;;;;;5009000;28;20249;-85
2021/06/02 09:01:25;;;;;;;8.38;4.40;;;21.30;99.90;;;;;;5000846;28;20291;-83
2021/06/02 09:03:51;;;;;;;6.35;4.43;;;22.20;99.90;;;;;;5005041;28;20239;-83
2021/06/02 09:06:17;;;;;;;4.40;3.90;;;23.60;99.90;;;;;;4986139;28;20240;-83
2021/06/02 09:08:44;;;;;;;6.57;3.80;;;23.50;99.90;;;;;;4998183;28;20184;-86
2021/06/02 09:11:19;;;;;;;7.45;4.35;;;23.80;99.90;;;;;;4991231;28;20216;-88
2021/06/02 09:13:46;;;;;;;11.20;5.28;;;24.00;99.90;;;;;;5011289;28;20219;-87
2021/06/02 09:16:30;;;;;;;8.52;5.18;;;24.50;99.90;;;;;;4987057;28;20270;-86
2021/06/02 09:19:09;;;;;;;5.75;3.83;;;24.70;99.90;;;;;;4996968;28;20224;-85
2021/06/02 09:21:38;;;;;;;8.50;4.80;;;24.90;99.90;;;;;;5019796;28;20222;-86
2021/06/02 09:24:05;;;;;;;7.95;5.05;;;24.80;99.90;;;;;;4989580;28;20618;-85
2021/06/02 09:26:32;;;;;;;7.55;4.68;;;24.90;99.90;;;;;;5025935;28;20219;-85
2021/06/02 09:29:09;;;;;;;8.07;4.85;;;24.70;99.90;;;;;;5012641;28;20238;-87
2021/06/02 09:31:46;;;;;;;5.63;4.30;;;23.60;99.90;;;;;;5011846;28;20235;-87
2021/06/02 09:34:24;;;;;;;7.03;4.60;;;22.60;99.90;;;;;;5005829;28;20224;-84
2021/06/02 09:37:03;;;;;;;6.53;4.22;;;22.10;99.90;;;;;;5028382;28;20218;-84
2021/06/02 09:39:29;;;;;;;8.70;3.92;;;22.00;99.90;;;;;;5022586;28;20211;-84
2021/06/02 09:41:58;;;;;;;8.32;5.68;;;22.40;99.90;;;;;;5017980;28;20187;-86
2021/06/02 09:44:29;;;;;;;6.35;3.95;;;22.30;99.90;;;;;;5010001;28;20188;-86
2021/06/02 09:47:01;;;;;;;5.57;4.80;;;22.50;99.90;;;;;;5009981;28;20361;-85
2021/06/02 09:49:29;;;;;;;7.65;4.57;;;22.30;99.90;;;;;;5027135;28;20234;-86
2021/06/02 09:51:55;;;;;;;5.38;4.05;;;22.20;99.90;;;;;;5009507;28;20219;-86
2021/06/02 09:54:23;;;;;;;7.60;4.82;;;22.30;99.90;;;;;;5015317;28;20222;-86
2021/06/02 09:56:50;;;;;;;10.38;5.10;;;22.40;99.90;;;;;;5022686;28;20234;-87
2021/06/02 09:59:17;;;;;;;7.22;4.72;;;22.50;99.90;;;;;;5013062;28;20217;-84
2021/06/02 10:02:00;;;;;;;6.70;4.70;;;22.40;99.90;;;;;;5027151;28;20227;-88
2021/06/02 10:04:36;;;;;;;10.13;5.30;;;22.10;99.90;;;;;;5030360;28;20231;-84
2021/06/02 10:07:04;;;;;;;9.98;5.85;;;22.10;99.90;;;;;;5022116;28;20229;-83
2021/06/02 10:09:35;;;;;;;9.35;6.03;;;22.10;99.90;;;;;;5014735;28;20358;-85
2021/06/02 10:12:10;;;;;;;11.95;6.20;;;22.70;99.90;;;;;;5011357;28;20191;-85
2021/06/02 10:14:41;;;;;;;9.95;5.50;;;22.60;99.90;;;;;;5022582;28;20269;-86
2021/06/02 10:17:30;;;;;;;8.93;5.80;;;22.60;99.90;;;;;;5016788;28;20228;-85
2021/06/02 10:20:11;;;;;;;9.05;5.40;;;22.40;99.90;;;;;;5025125;28;20277;-86
2021/06/02 10:22:39;;;;;;;7.97;5.60;;;23.00;99.90;;;;;;5008216;28;20219;-86
2021/06/02 10:25:07;;;;;;;10.43;6.35;;;22.40;99.90;;;;;;5023416;28;20230;-86
2021/06/02 10:27:34;;;;;;;8.25;5.55;;;22.10;99.90;;;;;;5013159;28;20246;-86
2021/06/02 10:30:00;;;;;;;9.57;5.32;;;22.70;99.90;;;;;;5026313;28;20194;-84
2021/06/02 10:32:27;;;;;;;9.15;5.88;;;22.80;99.90;;;;;;5002349;28;20239;-86
2021/06/02 10:34:54;;;;;;;9.43;5.85;;;22.70;99.90;;;;;;5006874;28;20223;-84
2021/06/02 10:37:22;;;;;;;8.68;5.40;;;22.90;99.90;;;;;;5008306;28;20215;-85
2021/06/02 10:39:58;;;;;;;8.48;5.25;;;23.00;99.90;;;;;;5003316;28;20906;-85
2021/06/02 10:42:27;;;;;;;10.00;6.22;;;22.80;99.90;;;;;;5010755;28;20218;-84
2021/06/02 10:44:58;;;;;;;8.70;5.80;;;23.20;99.90;;;;;;5009497;28;20648;-83
2021/06/02 10:47:26;;;;;;;11.23;5.43;;;22.90;99.90;;;;;;5019996;28;20217;-84
2021/06/02 10:49:53;;;;;;;8.35;5.82;;;22.90;99.90;;;;;;5027089;28;20223;-85
2021/06/02 10:52:35;;;;;;;9.35;6.00;;;22.90;99.90;;;;;;5017193;28;20218;-84
2021/06/02 10:55:32;;;;;;;5.90;4.57;;;22.90;99.90;;;;;;5006649;28;20226;-85
2021/06/02 10:58:20;;;;;;;8.60;5.32;;;22.80;99.90;;;;;;5023366;28;20212;-82
2021/06/02 11:00:47;;;;;;;11.70;5.47;;;22.90;99.90;;;;;;5024681;28;20281;-85
2021/06/02 11:03:32;;;;;;;6.82;5.10;;;23.00;99.90;;;;;;5009887;28;20218;-84
2021/06/02 11:06:13;;;;;;;10.25;5.45;;;22.80;99.90;;;;;;5001079;28;20191;-85
2021/06/02 11:08:48;;;;;;;7.30;4.43;;;22.80;99.90;;;;;;4991557;28;20195;-84
2021/06/02 11:11:31;;;;;;;7.20;4.32;;;22.80;99.90;;;;;;5012337;28;20223;-84
2021/06/02 11:14:15;;;;;;;8.73;4.57;;;22.60;99.90;;;;;;5002045;28;20226;-84
2021/06/02 11:16:47;;;;;;;5.55;4.20;;;23.00;99.90;;;;;;5005955;28;20716;-84
2021/06/02 11:19:19;;;;;;;6.13;4.63;;;22.80;99.90;;;;;;5023035;28;20240;-84
2021/06/02 11:21:54;;;;;;;5.57;4.00;;;22.40;99.90;;;;;;4997193;28;20234;-84
2021/06/02 11:27:10;;;;;;;6.50;4.68;;;22.50;99.90;;;;;;4991956;28;20223;-84
2021/06/02 11:29:51;;;;;;;7.25;3.67;;;22.40;99.90;;;;;;5026743;28;20233;-84
2021/06/02 11:32:18;;;;;;;4.13;3.50;;;21.90;99.90;;;;;;5024760;28;20239;-84
2021/06/02 11:34:46;;;;;;;7.18;4.07;;;22.00;99.90;;;;;;5010010;28;20623;-83
2021/06/02 11:37:15;;;;;;;4.50;3.90;;;22.20;99.90;;;;;;4987023;28;20219;-85
2021/06/02 11:39:43;;;;;;;5.20;4.03;;;22.00;99.90;;;;;;5012270;28;21307;-83
2021/06/02 11:42:30;;;;;;;5.57;3.42;;;21.90;99.90;;;;;;5017271;28;20305;-85
2021/06/02 11:45:07;;;;;;;7.47;3.47;;;22.20;99.90;;;;;;5000280;28;20203;-88
2021/06/02 11:47:33;;;;;;;10.25;3.75;;;22.10;99.90;;;;;;5000209;28;20728;-87
2021/06/02 11:50:08;;;;;;;6.35;3.80;;;22.30;99.90;;;;;;5008690;28;20262;-89
2021/06/02 11:52:35;;;;;;;10.03;3.63;;;22.00;99.90;;;;;;4983870;28;20238;-88
2021/06/02 11:55:06;;;;;;;7.05;3.88;;;22.40;99.90;;;;;;5009796;28;20274;-89
2021/06/02 11:57:39;;;;;;;7.57;3.80;;;22.40;99.90;;;;;;5013830;28;20219;-89
2021/06/02 12:00:07;;;;;;;6.83;4.37;;;22.20;99.90;;;;;;5006508;28;20712;-90
2021/06/02 12:02:34;;;;;;;5.28;3.55;;;22.50;99.90;;;;;;5001614;28;20682;-89
2021/06/02 12:05:29;;;;;;;8.05;3.90;;;22.40;99.90;;;;;;5012728;28;20215;-87
2021/06/02 12:08:06;;;;;;;6.28;4.15;;;22.10;99.90;;;;;;5023865;28;20254;-88
2021/06/02 12:10:43;;;;;;;5.35;3.70;;;22.20;99.90;;;;;;4996939;28;20227;-88
2021/06/02 12:13:28;;;;;;;6.20;3.53;;;22.00;99.90;;;;;;5017196;28;20216;-88
2021/06/02 12:16:00;;;;;;;7.10;3.53;;;21.80;99.90;;;;;;5002713;28;20302;-88
2021/06/02 12:18:40;;;;;;;6.47;3.77;;;21.80;99.90;;;;;;5002482;28;20310;-88
2021/06/02 12:21:17;;;;;;;4.50;3.57;;;21.80;99.90;;;;;;4995132;28;20273;-93
2021/06/02 12:24:04;;;;;;;4.83;3.90;;;22.20;99.90;;;;;;5010357;28;20193;-89
2021/06/02 12:26:41;;;;;;;8.70;3.85;;;22.00;99.90;;;;;;4993658;28;20251;-91
2021/06/02 12:29:09;;;;;;;4.87;3.50;;;22.30;99.90;;;;;;4996631;28;20238;-91
2021/06/02 12:31:44;;;;;;;6.33;3.67;;;22.30;99.90;;;;;;4984318;28;20258;-89
2021/06/02 12:34:16;;;;;;;5.88;4.18;;;22.20;99.90;;;;;;5012160;28;20223;-90
2021/06/02 12:36:56;;;;;;;5.27;3.67;;;21.90;99.90;;;;;;4999936;28;20685;-90
2021/06/02 12:39:29;;;;;;;4.38;2.92;;;22.10;99.90;;;;;;5023810;28;20580;-89
2021/06/02 12:41:56;;;;;;;7.57;4.40;;;22.10;99.90;;;;;;5009060;28;20811;-89
2021/06/02 12:44:35;;;;;;;5.43;4.13;;;21.90;99.90;;;;;;5021376;28;20199;-89
2021/06/02 12:47:14;;;;;;;5.80;3.43;;;21.70;99.90;;;;;;5001370;28;20219;-89
2021/06/02 12:49:54;;;;;;;6.87;3.43;;;21.70;99.90;;;;;;4994188;28;20220;-89
2021/06/02 12:52:21;;;;;;;7.00;4.07;;;22.20;99.90;;;;;;5007490;28;20305;-90
2021/06/02 12:54:46;;;;;;;5.43;3.43;;;22.40;99.90;;;;;;4991016;28;20262;-90
2021/06/02 12:57:12;;;;;;;8.00;3.17;;;22.20;99.90;;;;;;4999126;28;20315;-89
2021/06/02 12:59:39;;;;;;;4.60;3.10;;;21.90;99.90;;;;;;4994616;28;20198;-90
2021/06/02 13:02:09;;;;;;;5.77;3.17;;;22.10;99.90;;;;;;5022029;28;20306;-89
2021/06/02 13:04:35;;;;;;;6.20;3.73;;;21.90;99.90;;;;;;5012923;28;20729;-90
2021/06/02 13:07:01;;;;;;;5.13;3.70;;;22.00;99.90;;;;;;4994026;28;20763;-89
2021/06/02 13:09:27;;;;;;;6.57;3.53;;;22.00;99.90;;;;;;4998371;28;20398;-88
2021/06/02 13:11:54;;;;;;;7.43;3.43;;;21.80;99.90;;;;;;5013496;28;20257;-91
2021/06/02 13:14:31;;;;;;;4.90;2.90;;;22.00;99.90;;;;;;5024192;28;20289;-89
2021/06/02 13:16:57;;;;;;;4.83;3.27;;;22.00;99.90;;;;;;5016799;28;20214;-88
2021/06/02 13:19:38;;;;;;;7.03;3.27;;;21.80;99.90;;;;;;4993877;28;20226;-91
2021/06/02 13:22:05;;;;;;;6.10;3.43;;;21.70;99.90;;;;;;5010860;28;20313;-88
2021/06/02 13:24:40;;;;;;;4.97;3.77;;;21.90;99.90;;;;;;4995280;28;20223;-90
2021/06/02 13:27:13;;;;;;;3.10;2.80;;;21.80;99.90;;;;;;5002191;28;21937;-90
2021/06/02 13:29:39;;;;;;;7.30;3.10;;;21.70;99.90;;;;;;5034868;28;20195;-89